»·PEaware :: UAL1165 KSLC-KDEN

UAL1165 :: KSLC-KDEN

FLIGHT INFORMATION

Flight Status: Arrived
Operator:
United Airlines
More flights by this operator :: More flights under this callsign
Pilot: Jake M. (20491)
Aircraft: AIRBUS A320
(A320)
More flights by this aircraft type
Origin: KSLC Salt Lake City Intl
United States
Destination: KDEN Denver Intl
United States
More flights between these airports :: More routes between these airports
Route: +RUGGD1 PERTY CHE KAILE2
File this flight plan on PilotEdge
Remarks:
Altitude:
(Current/Filed)
37,000ft
Speed:
(Current/Filed)
450kts
Departed: 12-Jan-19 04:27 PM
Arrived: 12-Jan-19 05:25 PM
Distance/Time
Traveled:
338nm/0:58
Distance/Time
To Go:
Arrived

Flight Plot

Page will automatically refresh every two minutes.

Flight plan parsing failed; only flown route is shown


Map Options




Map Legend


Flown Route
Filed Route
Departure Airport
Arrival Airport
Navaid (VOR, NDB)
Fix

Horizontal Profiles

Position Reports

Time Latitude Longitude Heading Altitude Ground
Speed
12-Jan-19 15:49 40.786659 -111.986723 56 4225ft 0kts
12-Jan-19 15:50 40.786659 -111.986723 56 4225ft 0kts
12-Jan-19 15:51 40.786659 -111.986723 56 4225ft 0kts
12-Jan-19 15:52 40.786659 -111.986723 56 4225ft 0kts
12-Jan-19 15:53 40.786659 -111.986723 56 4225ft 0kts
12-Jan-19 15:54 40.786659 -111.986723 56 4225ft 0kts
12-Jan-19 15:55 40.786659 -111.986723 56 4225ft 0kts
12-Jan-19 15:56 40.786659 -111.986723 56 4225ft 0kts
12-Jan-19 15:57 40.786659 -111.986723 56 4225ft 0kts
12-Jan-19 15:58 40.786659 -111.986723 56 4225ft 0kts
12-Jan-19 15:59 40.786659 -111.986723 56 4225ft 0kts
12-Jan-19 16:00 40.786659 -111.986723 56 4225ft 0kts
12-Jan-19 16:01 40.786659 -111.986723 56 4225ft 0kts
12-Jan-19 16:02 40.786659 -111.986723 56 4225ft 0kts
12-Jan-19 16:03 40.786659 -111.986723 56 4225ft 0kts
12-Jan-19 16:04 40.786659 -111.986723 56 4225ft 0kts
12-Jan-19 16:05 40.786659 -111.986723 56 4225ft 0kts
12-Jan-19 16:06 40.786659 -111.986723 56 4225ft 0kts
12-Jan-19 16:07 40.786659 -111.986723 56 4225ft 0kts
12-Jan-19 16:08 40.786659 -111.986723 56 4225ft 0kts
12-Jan-19 16:09 40.786659 -111.986723 56 4225ft 0kts
12-Jan-19 16:10 40.786659 -111.986723 56 4225ft 0kts
12-Jan-19 16:11 40.786659 -111.986723 56 4225ft 0kts
12-Jan-19 16:12 40.786659 -111.986723 56 4225ft 0kts
12-Jan-19 16:13 40.786659 -111.986723 56 4225ft 0kts
12-Jan-19 16:14 40.786659 -111.986723 56 4225ft 0kts
12-Jan-19 16:15 40.786408 -111.987180 21 4225ft 2kts
12-Jan-19 16:16 40.786150 -111.987065 311 4225ft 0kts
12-Jan-19 16:17 40.786150 -111.987065 311 4225ft 0kts
12-Jan-19 16:18 40.786150 -111.987065 311 4225ft 0kts
12-Jan-19 16:19 40.786150 -111.987065 311 4225ft 0kts
12-Jan-19 16:20 40.786254 -111.987222 310 4225ft 6kts
12-Jan-19 16:21 40.786595 -111.991811 276 4225ft 20kts
12-Jan-19 16:22 40.782514 -111.993195 175 4225ft 18kts
12-Jan-19 16:23 40.777168 -111.992576 175 4225ft 19kts
12-Jan-19 16:24 40.775124 -111.993966 303 4228ft 4kts
12-Jan-19 16:25 40.775221 -111.994335 276 4228ft 4kts
12-Jan-19 16:26 40.778202 -111.995864 353 4228ft 63kts
12-Jan-19 16:27 40.820202 -111.999320 352 5660ft 180kts
12-Jan-19 16:28 40.850284 -112.053383 292 7596ft 231kts
12-Jan-19 16:29 40.877899 -112.142470 292 9886ft 280kts
12-Jan-19 16:30 40.910127 -112.245803 292 11574ft 339kts
12-Jan-19 16:31 40.955762 -112.355967 324 14685ft 331kts
12-Jan-19 16:32 41.046848 -112.333940 43 16814ft 411kts
12-Jan-19 16:33 41.067091 -112.182780 101 18209ft 444kts
12-Jan-19 16:34 41.052577 -112.016685 80 19879ft 461kts
12-Jan-19 16:35 41.102719 -111.861035 62 21370ft 471kts
12-Jan-19 16:36 41.091971 -111.696901 133 22709ft 463kts
12-Jan-19 16:37 41.009891 -111.562912 135 23993ft 473kts
12-Jan-19 16:38 40.926733 -111.426037 129 25311ft 487kts
12-Jan-19 16:39 40.891487 -111.249519 101 26407ft 513kts
12-Jan-19 16:40 40.869356 -111.061456 101 27473ft 520kts
12-Jan-19 16:41 40.846387 -110.871451 101 28446ft 528kts
12-Jan-19 16:42 40.822703 -110.678325 101 29370ft 534kts
12-Jan-19 16:43 40.798801 -110.485988 102 30677ft 530kts
12-Jan-19 16:44 40.774724 -110.295015 102 32045ft 522kts
12-Jan-19 16:45 40.750642 -110.106682 102 33200ft 517kts
12-Jan-19 16:46 40.734014 -109.918342 96 34253ft 515kts
12-Jan-19 16:47 40.720359 -109.727152 95 34554ft 530kts
12-Jan-19 16:48 40.706302 -109.533956 95 35468ft 527kts
12-Jan-19 16:49 40.691817 -109.339746 96 36179ft 529kts
12-Jan-19 16:50 40.677297 -109.149369 96 37078ft 523kts
12-Jan-19 16:51 40.662413 -108.958521 96 37278ft 523kts
12-Jan-19 16:53 40.647255 -108.768115 96 37279ft 523kts
12-Jan-19 16:54 40.631780 -108.577757 96 37280ft 524kts
12-Jan-19 16:55 40.615944 -108.386877 96 37284ft 524kts
12-Jan-19 16:56 40.600045 -108.199040 96 37276ft 523kts
12-Jan-19 16:57 40.583544 -108.007880 96 37269ft 523kts
12-Jan-19 16:58 40.566734 -107.816964 96 37258ft 526kts
12-Jan-19 16:59 40.549615 -107.626090 96 37314ft 526kts
12-Jan-19 17:00 40.532132 -107.434798 96 37304ft 526kts
12-Jan-19 17:01 40.516894 -107.243514 93 37289ft 525kts
12-Jan-19 17:02 40.506779 -107.052692 93 37265ft 523kts
12-Jan-19 17:03 40.496363 -106.862207 93 36214ft 523kts
12-Jan-19 17:04 40.485528 -106.670143 93 34944ft 529kts
12-Jan-19 17:05 40.474203 -106.474980 93 31903ft 544kts
12-Jan-19 17:06 40.462339 -106.276582 92 28382ft 534kts
12-Jan-19 17:07 40.450902 -106.089863 91 25781ft 502kts
12-Jan-19 17:08 40.431637 -105.908420 99 23227ft 502kts
12-Jan-19 17:09 40.403772 -105.731527 100 20692ft 482kts
12-Jan-19 17:10 40.377443 -105.565894 98 19256ft 436kts
12-Jan-19 17:11 40.353863 -105.415829 98 18325ft 401kts
12-Jan-19 17:12 40.334557 -105.274366 99 16872ft 388kts
12-Jan-19 17:13 40.315544 -105.136628 100 15374ft 377kts
12-Jan-19 17:13 40.297350 -105.027790 103 14506ft 348kts
12-Jan-19 17:14 40.279718 -104.910888 96 13157ft 314kts
12-Jan-19 17:15 40.267824 -104.805204 100 12288ft 261kts
12-Jan-19 17:17 40.237623 -104.706422 144 10442ft 250kts
12-Jan-19 17:18 40.176534 -104.683915 180 9963ft 221kts
12-Jan-19 17:18 40.126459 -104.684333 179 9570ft 212kts
12-Jan-19 17:20 40.058145 -104.684957 180 8494ft 209kts
12-Jan-19 17:21 40.004514 -104.685542 180 7565ft 159kts
12-Jan-19 17:21 39.969568 -104.685965 180 6871ft 150kts
12-Jan-19 17:22 39.928434 -104.686430 181 6062ft 147kts
12-Jan-19 17:23 39.887936 -104.686963 179 5440ft 123kts
12-Jan-19 17:24 39.871171 -104.687169 178 5440ft 36kts
12-Jan-19 17:25 39.866688 -104.685015 180 5440ft 14kts
12-Jan-19 17:26 39.864039 -104.682102 139 5440ft 17kts
12-Jan-19 17:27 39.861316 -104.678900 97 5440ft 19kts
12-Jan-19 17:28 39.860127 -104.677644 138 5440ft 4kts
12-Jan-19 17:29 39.859437 -104.677353 179 5440ft 0kts
12-Jan-19 17:30 39.859410 -104.677353 178 5440ft 0kts
12-Jan-19 17:31 39.859410 -104.677353 179 5440ft 0kts

Navigation Log

Ident Type
Flight plan parsing failed, navigation log unavailable